This is the latest recevied weather packets stored in our database for station/object DK0KTL-4. If no packets are shown the sender has not sent any weather packets the latest 10 day(s).
| Time | Temp. | Humidity | Pressure | Rain* | Wind** | Luminosity | Snow |
|---|---|---|---|---|---|---|---|
| 1777714294 | 22.22° C | 35% | 1021.5 hPa | 0 mm | - | - | - |
| 1777713994 | 22.22° C | 35% | 1021.6 hPa | 0 mm | - | - | - |
| 1777713694 | 22.22° C | 38% | 1021.7 hPa | 0 mm | - | - | - |
| 1777713093 | 21.67° C | 37% | 1021.7 hPa | 0 mm | - | - | - |
| 1777712192 | 21.11° C | 36% | 1022 hPa | 0 mm | - | - | - |
| 1777711592 | 21.11° C | 40% | 1022.1 hPa | 0 mm | - | - | - |
| 1777710991 | 20.56° C | 44% | 1022.1 hPa | 0 mm | - | - | - |
| 1777710390 | 20° C | 47% | 1022.2 hPa | 0 mm | - | - | - |
| 1777710090 | 19.44° C | 47% | 1022.4 hPa | 0 mm | - | - | - |
| 1777708889 | 18.33° C | 49% | 1022.6 hPa | 0 mm | - | - | - |
| 1777708589 | 17.78° C | 49% | 1022.5 hPa | 0 mm | - | - | - |
| 1777708288 | 17.22° C | 51% | 1022.6 hPa | 0 mm | - | - | - |
| 1777707688 | 16.67° C | 53% | 1022.7 hPa | 0 mm | - | - | - |
| 1777707388 | 16.67° C | 54% | 1022.7 hPa | 0 mm | - | - | - |
| 1777707087 | 16.11° C | 55% | 1022.6 hPa | 0 mm | - | - | - |
| 1777706787 | 15.56° C | 56% | 1022.7 hPa | 0 mm | - | - | - |
| 1777704985 | 11.67° C | 69% | 1022.8 hPa | 0 mm | - | - | - |
| 1777704685 | 11.11° C | 70% | 1022.7 hPa | 0 mm | - | - | - |
| 1777703784 | 10° C | 73% | 1022.8 hPa | 0 mm | - | - | - |
| 1777703184 | 8.89° C | 75% | 1022.9 hPa | 0 mm | - | - | - |
| 1777702883 | 8.33° C | 77% | 1022.8 hPa | 0 mm | - | - | - |
| 1777702283 | 7.78° C | 80% | 1023 hPa | 0 mm | - | - | - |
| 1777701682 | 7.22° C | 82% | 1023.1 hPa | 0 mm | - | - | - |
| 1777701382 | 6.67° C | 83% | 1023.1 hPa | 0 mm | - | - | - |
| 1777700481 | 6.11° C | 84% | 1023.3 hPa | 0 mm | - | - | - |
* Rain latest hour (hover to see other rain measurements)
** Current wind speed in m/s (hover to see current wind gust speed)